createdAt,value
2022-08-30T00:01:35.440Z,25.90
2022-08-30T00:04:03.817Z,25.86
2022-08-30T00:06:32.308Z,25.85
2022-08-30T00:08:59.983Z,25.72
2022-08-30T00:11:29.156Z,25.62
2022-08-30T00:13:57.612Z,25.59
2022-08-30T00:16:26.925Z,25.52
2022-08-30T00:18:55.095Z,25.52
2022-08-30T00:21:27.183Z,25.59
2022-08-30T00:23:55.253Z,25.62
2022-08-30T00:26:22.834Z,25.70
2022-08-30T00:28:51.356Z,25.76
2022-08-30T00:31:19.302Z,25.64
2022-08-30T00:33:47.194Z,25.51
2022-08-30T00:36:16.083Z,25.46
2022-08-30T00:38:44.185Z,25.45
2022-08-30T00:41:12.287Z,25.45
2022-08-30T00:43:39.805Z,25.55
2022-08-30T00:46:08.818Z,25.49
2022-08-30T00:48:41.112Z,25.52
2022-08-30T00:51:11.952Z,25.58
2022-08-30T00:53:45.369Z,25.48
2022-08-30T00:56:14.013Z,25.54
2022-08-30T00:58:52.131Z,25.43
2022-08-30T01:01:20.293Z,25.31
2022-08-30T01:03:49.227Z,25.45
2022-08-30T01:06:17.350Z,25.57
2022-08-30T01:08:46.934Z,25.45
2022-08-30T01:11:22.195Z,25.35
2022-08-30T01:13:53.700Z,25.40
2022-08-30T01:16:23.072Z,25.35
2022-08-30T01:18:54.742Z,25.46
2022-08-30T01:21:34.188Z,25.42
2022-08-30T01:24:03.748Z,25.44
2022-08-30T01:26:33.326Z,25.38
2022-08-30T01:29:06.668Z,25.52
2022-08-30T01:31:37.096Z,25.56
2022-08-30T01:34:07.754Z,25.70
2022-08-30T01:36:44.961Z,25.54
2022-08-30T01:39:16.563Z,25.68
2022-08-30T01:41:45.836Z,25.81
2022-08-30T01:44:14.752Z,25.70
2022-08-30T01:46:48.562Z,25.64
2022-08-30T01:49:27.351Z,25.57
2022-08-30T01:52:00.666Z,25.60
2022-08-30T01:54:36.591Z,25.57
2022-08-30T01:57:13.631Z,25.51
2022-08-30T01:59:47.437Z,25.54
2022-08-30T02:02:20.005Z,25.58
2022-08-30T02:04:47.924Z,25.76
2022-08-30T02:07:17.057Z,25.75
2022-08-30T02:09:46.110Z,25.71
2022-08-30T02:12:15.344Z,25.78
2022-08-30T02:14:42.868Z,25.67
2022-08-30T02:17:13.399Z,25.57
2022-08-30T02:19:42.620Z,25.39
2022-08-30T02:22:10.852Z,25.47
2022-08-30T02:24:39.193Z,25.44
2022-08-30T02:27:06.778Z,25.32
2022-08-30T02:29:35.355Z,25.07
2022-08-30T02:32:03.740Z,25.09
2022-08-30T02:34:31.436Z,25.13
2022-08-30T02:36:59.533Z,25.19
2022-08-30T02:39:27.615Z,25.27
2022-08-30T02:41:55.915Z,25.21
2022-08-30T02:44:23.570Z,24.98
2022-08-30T02:46:51.228Z,24.98
2022-08-30T02:49:34.442Z,25.07
2022-08-30T02:52:05.514Z,25.21
2022-08-30T02:54:33.457Z,25.31
2022-08-30T02:57:05.204Z,25.35
2022-08-30T02:59:33.959Z,25.46
2022-08-30T03:02:01.514Z,25.44
2022-08-30T03:04:29.966Z,25.38
2022-08-30T03:06:57.478Z,25.37
2022-08-30T03:09:25.076Z,25.25
2022-08-30T03:11:52.628Z,25.24
2022-08-30T03:14:20.629Z,25.30
2022-08-30T03:16:48.522Z,25.20
2022-08-30T03:19:16.152Z,25.14
2022-08-30T03:21:44.980Z,25.15
2022-08-30T03:24:13.721Z,25.02
2022-08-30T03:26:46.077Z,25.09
2022-08-30T03:29:14.875Z,25.25
2022-08-30T03:31:52.402Z,25.26
2022-08-30T03:34:21.989Z,25.29
2022-08-30T03:36:50.704Z,25.39
2022-08-30T03:39:18.593Z,25.44
2022-08-30T03:41:46.578Z,25.50
2022-08-30T03:44:14.248Z,25.38
2022-08-30T03:46:43.426Z,25.39
2022-08-30T03:49:11.444Z,25.39
2022-08-30T03:51:39.400Z,25.23
2022-08-30T03:54:06.995Z,25.13
2022-08-30T03:56:34.501Z,25.14
2022-08-30T03:59:02.296Z,25.21
2022-08-30T04:01:29.911Z,25.15
2022-08-30T04:03:57.865Z,25.22
2022-08-30T04:06:25.968Z,25.19
2022-08-30T04:08:55.310Z,25.18
2022-08-30T04:11:23.404Z,25.10
2022-08-30T04:13:51.994Z,25.17
2022-08-30T04:16:20.158Z,25.15
2022-08-30T04:18:48.244Z,25.12
2022-08-30T04:21:15.873Z,25.14
2022-08-30T04:23:44.743Z,25.18
2022-08-30T04:26:12.465Z,25.14
2022-08-30T04:28:40.284Z,25.04
2022-08-30T04:31:13.389Z,24.87
2022-08-30T04:33:43.987Z,24.83
2022-08-30T04:36:13.807Z,24.93
2022-08-30T04:38:43.111Z,24.99
2022-08-30T04:41:22.727Z,25.04
2022-08-30T04:43:51.005Z,24.93
2022-08-30T04:46:19.752Z,24.90
2022-08-30T04:48:47.657Z,24.87
2022-08-30T04:51:17.560Z,24.87
2022-08-30T04:53:45.466Z,24.81
2022-08-30T04:56:19.754Z,24.63
2022-08-30T04:58:50.089Z,24.63
2022-08-30T05:01:21.200Z,24.60
2022-08-30T05:03:52.747Z,24.63
2022-08-30T05:06:21.927Z,24.63
2022-08-30T05:08:52.866Z,24.69
2022-08-30T05:11:21.399Z,24.70
2022-08-30T05:13:50.007Z,24.61
2022-08-30T05:16:19.526Z,24.63
2022-08-30T05:18:49.480Z,24.56
2022-08-30T05:21:21.621Z,24.49
2022-08-30T05:23:50.922Z,24.55
2022-08-30T05:26:21.970Z,24.57
2022-08-30T05:28:53.145Z,24.65
2022-08-30T05:31:25.892Z,24.71
2022-08-30T05:33:55.082Z,24.68
2022-08-30T05:36:26.619Z,24.68
2022-08-30T05:38:55.622Z,24.52
2022-08-30T05:41:26.392Z,24.43
2022-08-30T05:43:56.775Z,24.32
2022-08-30T05:46:24.945Z,24.36
2022-08-30T05:48:53.085Z,24.43
2022-08-30T05:51:23.533Z,24.30
2022-08-30T05:53:53.443Z,24.18
2022-08-30T05:56:31.339Z,24.30
2022-08-30T05:58:59.041Z,24.48
2022-08-30T06:01:30.451Z,24.50
2022-08-30T06:04:03.924Z,24.37
2022-08-30T06:06:34.471Z,24.52
2022-08-30T06:09:05.246Z,24.80
2022-08-30T06:11:34.895Z,24.96
2022-08-30T06:14:04.074Z,24.89
2022-08-30T06:16:32.461Z,25.11
2022-08-30T06:19:01.261Z,25.35
2022-08-30T06:21:31.983Z,25.71
2022-08-30T06:23:59.723Z,25.95
2022-08-30T06:26:29.436Z,25.92
2022-08-30T06:28:58.048Z,26.15
2022-08-30T06:31:26.255Z,26.36
2022-08-30T06:33:54.861Z,26.53
2022-08-30T06:36:24.746Z,26.30
2022-08-30T06:38:54.803Z,26.37
2022-08-30T06:41:26.900Z,26.59
2022-08-30T06:43:55.559Z,26.89
2022-08-30T06:46:27.941Z,26.81
2022-08-30T06:48:56.809Z,26.88
2022-08-30T06:51:30.149Z,27.11
2022-08-30T06:53:58.765Z,27.26
2022-08-30T06:56:27.751Z,27.31
2022-08-30T06:58:55.711Z,27.46
2022-08-30T07:01:28.571Z,27.50
2022-08-30T07:03:56.881Z,27.59
2022-08-30T07:06:25.877Z,27.80
2022-08-30T07:08:56.438Z,27.92
2022-08-30T07:11:29.662Z,27.89
2022-08-30T07:13:57.517Z,27.94
2022-08-30T07:16:25.812Z,28.07
2022-08-30T07:18:56.565Z,28.11
2022-08-30T07:21:37.330Z,27.88
2022-08-30T07:24:08.823Z,27.89
2022-08-30T07:26:42.766Z,27.82
2022-08-30T07:29:11.084Z,27.87
2022-08-30T07:31:38.832Z,28.04
2022-08-30T07:34:07.866Z,28.23
2022-08-30T07:36:37.826Z,28.15
2022-08-30T07:39:07.166Z,28.31
2022-08-30T07:41:38.869Z,28.53
2022-08-30T07:44:09.318Z,28.72
2022-08-30T07:46:40.612Z,28.61
2022-08-30T07:49:11.253Z,28.80
2022-08-30T07:51:40.920Z,28.95
2022-08-30T07:54:08.880Z,28.87
2022-08-30T07:56:37.213Z,28.83
2022-08-30T07:59:05.220Z,28.97
2022-08-30T08:01:33.059Z,29.05
2022-08-30T08:04:00.640Z,28.90
2022-08-30T08:06:32.933Z,29.19
2022-08-30T08:09:04.170Z,29.15
2022-08-30T08:11:34.218Z,29.58
2022-08-30T08:14:03.781Z,29.57
2022-08-30T08:16:33.818Z,29.71
2022-08-30T08:19:08.786Z,29.96
2022-08-30T08:21:38.041Z,30.39
2022-08-30T08:24:07.161Z,30.54
2022-08-30T08:26:36.808Z,30.67
2022-08-30T08:29:06.411Z,31.03
2022-08-30T08:31:34.557Z,31.30
2022-08-30T08:34:06.081Z,31.31
2022-08-30T08:36:36.351Z,30.82
2022-08-30T08:39:05.440Z,30.95
2022-08-30T08:41:51.409Z,30.92
2022-08-30T08:44:55.902Z,31.01
2022-08-30T08:48:04.176Z,31.19
2022-08-30T08:50:32.403Z,31.55
2022-08-30T08:53:52.763Z,31.53
2022-08-30T08:56:23.175Z,30.73
2022-08-30T08:58:54.276Z,31.27
2022-08-30T09:01:30.388Z,31.27
2022-08-30T09:04:01.710Z,31.59
2022-08-30T09:06:59.463Z,31.25
2022-08-30T09:09:31.537Z,31.74
2022-08-30T09:11:59.931Z,31.53
2022-08-30T09:14:34.340Z,31.73
2022-08-30T09:17:09.470Z,31.76
2022-08-30T09:19:59.309Z,32.16
2022-08-30T09:22:34.724Z,31.75
2022-08-30T09:25:13.909Z,32.60
2022-08-30T09:27:47.734Z,33.03
2022-08-30T09:30:21.445Z,32.61
2022-08-30T09:33:04.061Z,32.02
2022-08-30T09:35:42.766Z,32.00
2022-08-30T09:38:27.532Z,32.25
2022-08-30T09:40:58.844Z,32.50
2022-08-30T09:43:32.865Z,32.72
2022-08-30T09:46:00.463Z,32.79
2022-08-30T09:48:38.206Z,32.57
2022-08-30T09:51:11.970Z,32.77
2022-08-30T09:57:04.458Z,33.74
2022-08-30T10:00:02.160Z,34.28
2022-08-30T10:02:40.565Z,34.54
2022-08-30T10:05:37.232Z,34.36
2022-08-30T10:08:30.958Z,34.40
2022-08-30T10:11:08.478Z,33.99
2022-08-30T10:13:52.846Z,34.01
2022-08-30T10:16:45.806Z,34.53
2022-08-30T10:19:19.735Z,34.27
2022-08-30T10:21:58.421Z,33.83
2022-08-30T10:24:33.793Z,33.72
2022-08-30T10:27:16.641Z,34.65
2022-08-30T10:29:55.047Z,35.30
2022-08-30T10:32:28.557Z,36.18
2022-08-30T10:35:03.333Z,36.30
2022-08-30T10:37:36.399Z,36.49
2022-08-30T10:40:29.540Z,36.43
2022-08-30T10:43:02.805Z,36.75
2022-08-30T10:45:37.579Z,37.32
2022-08-30T10:48:19.222Z,37.06
2022-08-30T10:50:53.839Z,36.73
2022-08-30T10:53:40.815Z,37.19
2022-08-30T10:56:15.169Z,36.90
2022-08-30T10:58:43.499Z,37.04
2022-08-30T11:01:29.855Z,35.96
2022-08-30T11:04:14.383Z,36.95
2022-08-30T11:07:09.811Z,38.43
2022-08-30T11:10:17.788Z,40.39
2022-08-30T11:12:51.516Z,38.80
2022-08-30T11:15:25.852Z,39.65
2022-08-30T11:17:56.185Z,40.18
2022-08-30T11:20:34.539Z,38.27
2022-08-30T11:23:25.347Z,36.78
2022-08-30T11:26:01.457Z,36.48
2022-08-30T11:28:36.794Z,36.22
2022-08-30T11:31:06.804Z,36.11
2022-08-30T11:33:51.847Z,35.87
2022-08-30T11:36:37.246Z,35.46
2022-08-30T11:39:12.397Z,35.09
2022-08-30T11:41:47.670Z,35.32
2022-08-30T11:44:24.264Z,35.88
2022-08-30T11:46:59.734Z,36.83
2022-08-30T11:49:34.418Z,37.59
2022-08-30T11:55:04.564Z,37.87
2022-08-30T11:57:49.921Z,37.88
2022-08-30T12:00:40.821Z,37.88
2022-08-30T12:03:14.864Z,37.31
2022-08-30T12:05:45.870Z,36.63
2022-08-30T12:08:37.252Z,37.00
2022-08-30T12:11:27.293Z,37.84
2022-08-30T12:13:56.253Z,38.94
2022-08-30T12:16:37.169Z,39.18
2022-08-30T12:19:19.133Z,38.77
2022-08-30T12:21:57.526Z,39.88
2022-08-30T12:24:40.206Z,39.07
2022-08-30T12:27:32.516Z,38.00
2022-08-30T12:30:06.766Z,38.15
2022-08-30T12:32:43.258Z,38.70
2022-08-30T12:35:21.377Z,39.98
2022-08-30T12:38:05.970Z,40.47
2022-08-30T12:40:35.194Z,39.42
2022-08-30T12:43:17.379Z,40.26
2022-08-30T12:45:50.969Z,40.37
2022-08-30T12:48:20.852Z,40.02
2022-08-30T12:50:55.209Z,39.94
2022-08-30T12:53:39.454Z,40.10
2022-08-30T12:56:09.368Z,40.18
2022-08-30T12:58:50.874Z,40.50
2022-08-30T13:01:28.267Z,38.93
2022-08-30T13:04:00.876Z,39.69
2022-08-30T13:06:48.979Z,39.93
2022-08-30T13:09:33.915Z,40.98
2022-08-30T13:12:04.664Z,41.89
2022-08-30T13:14:44.219Z,43.07
2022-08-30T13:17:23.027Z,43.97
2022-08-30T13:19:59.882Z,43.10
2022-08-30T13:22:39.138Z,43.05
2022-08-30T13:25:08.408Z,43.39
2022-08-30T13:27:38.498Z,42.82
2022-08-30T13:30:17.076Z,42.16
2022-08-30T13:32:45.050Z,41.09
2022-08-30T13:35:12.998Z,41.18
2022-08-30T13:37:49.497Z,41.95
2022-08-30T13:40:20.687Z,42.56
2022-08-30T13:42:49.368Z,41.71
2022-08-30T13:48:07.790Z,42.46
2022-08-30T13:50:36.108Z,42.88
2022-08-30T13:53:03.741Z,42.46
2022-08-30T13:55:31.719Z,42.72
2022-08-30T13:57:59.709Z,42.38
2022-08-30T14:00:30.415Z,41.49
2022-08-30T14:03:00.496Z,40.28
2022-08-30T14:05:54.646Z,39.70
2022-08-30T14:11:16.114Z,42.21
2022-08-30T14:16:37.569Z,42.15
2022-08-30T14:19:07.438Z,42.95
2022-08-30T14:21:35.982Z,43.72
2022-08-30T14:24:06.489Z,42.71
2022-08-30T14:26:45.398Z,42.51
2022-08-30T14:29:20.650Z,42.88
2022-08-30T14:31:49.285Z,42.18
2022-08-30T14:34:18.482Z,41.55
2022-08-30T14:36:46.805Z,41.02
2022-08-30T14:39:18.224Z,39.39
2022-08-30T14:41:49.202Z,37.74
2022-08-30T14:44:18.791Z,36.36
2022-08-30T14:46:47.479Z,35.66
2022-08-30T14:49:16.119Z,35.10
2022-08-30T14:51:46.393Z,34.33
2022-08-30T14:54:16.585Z,34.80
2022-08-30T14:56:45.629Z,35.50
2022-08-30T14:59:14.806Z,35.72
2022-08-30T15:01:43.172Z,36.18
2022-08-30T15:04:12.444Z,35.67
2022-08-30T15:06:43.729Z,35.65
2022-08-30T15:09:13.850Z,36.13
2022-08-30T15:11:47.019Z,36.34
2022-08-30T15:14:16.359Z,36.37
2022-08-30T15:16:45.297Z,36.21
2022-08-30T15:19:13.801Z,36.31
2022-08-30T15:21:45.023Z,36.59
2022-08-30T15:24:19.494Z,36.85
2022-08-30T15:26:52.722Z,36.83
2022-08-30T15:29:21.183Z,36.68
2022-08-30T15:31:50.248Z,36.29
2022-08-30T15:34:20.845Z,35.68
2022-08-30T15:36:53.879Z,35.56
2022-08-30T15:39:21.930Z,35.70
2022-08-30T15:41:56.098Z,35.65
2022-08-30T15:44:24.942Z,35.45
2022-08-30T15:46:52.890Z,34.86
2022-08-30T15:49:22.630Z,34.52
2022-08-30T15:51:54.093Z,34.12
2022-08-30T15:54:24.105Z,33.55
2022-08-30T15:56:59.552Z,33.62
2022-08-30T15:59:29.748Z,33.40
2022-08-30T16:01:58.128Z,33.46
2022-08-30T16:04:26.017Z,32.86
2022-08-30T16:06:54.808Z,32.61
2022-08-30T16:09:25.006Z,32.60
2022-08-30T16:11:53.249Z,32.24
2022-08-30T16:14:21.340Z,32.28
2022-08-30T16:16:49.776Z,32.25
2022-08-30T16:19:17.357Z,32.23
2022-08-30T16:21:45.265Z,32.28
2022-08-30T16:24:14.084Z,32.13
2022-08-30T16:26:43.867Z,31.97
2022-08-30T16:29:13.333Z,31.80
2022-08-30T16:31:44.376Z,31.61
2022-08-30T16:34:14.893Z,31.69
2022-08-30T16:36:43.491Z,31.74
2022-08-30T16:39:13.190Z,31.68
2022-08-30T16:41:44.400Z,31.73
2022-08-30T16:44:13.739Z,31.53
2022-08-30T16:46:43.788Z,31.44
2022-08-30T16:49:22.823Z,31.32
2022-08-30T16:51:51.315Z,31.24
2022-08-30T16:54:20.297Z,31.24
2022-08-30T16:56:48.392Z,31.24
2022-08-30T16:59:16.811Z,31.16
2022-08-30T17:01:45.249Z,31.11
2022-08-30T17:04:15.841Z,31.18
2022-08-30T17:06:50.102Z,31.05
2022-08-30T17:09:19.498Z,30.94
2022-08-30T17:11:48.921Z,30.88
2022-08-30T17:14:22.968Z,30.81
2022-08-30T17:16:58.004Z,30.64
2022-08-30T17:19:27.082Z,30.14
2022-08-30T17:21:57.085Z,28.94
2022-08-30T17:24:26.564Z,28.14
2022-08-30T17:26:54.857Z,27.46
2022-08-30T17:29:22.509Z,26.93
2022-08-30T17:31:51.596Z,26.93
2022-08-30T17:34:22.047Z,27.05
2022-08-30T17:36:52.687Z,26.90
2022-08-30T17:39:23.760Z,26.79
2022-08-30T17:41:52.784Z,26.47
2022-08-30T17:44:28.621Z,26.43
2022-08-30T17:46:58.104Z,26.09
2022-08-30T17:49:28.150Z,26.02
2022-08-30T17:51:57.248Z,25.73
2022-08-30T17:54:28.038Z,25.43
2022-08-30T17:56:57.291Z,25.24
2022-08-30T17:59:27.042Z,25.38
2022-08-30T18:01:59.593Z,25.32
2022-08-30T18:04:27.725Z,25.19
2022-08-30T18:06:56.113Z,25.10
2022-08-30T18:09:24.795Z,25.22
2022-08-30T18:11:56.426Z,24.99
2022-08-30T18:14:24.309Z,25.21
2022-08-30T18:16:54.358Z,25.11
2022-08-30T18:19:28.092Z,25.08
2022-08-30T18:21:56.668Z,25.30
2022-08-30T18:24:25.309Z,25.17
2022-08-30T18:26:54.899Z,24.90
2022-08-30T18:29:29.411Z,25.03
2022-08-30T18:32:04.089Z,25.23
2022-08-30T18:34:33.150Z,25.00
2022-08-30T18:37:01.157Z,24.95
2022-08-30T18:39:34.328Z,25.14
2022-08-30T18:42:02.988Z,25.47
2022-08-30T18:44:33.140Z,25.42
2022-08-30T18:47:03.868Z,25.65
2022-08-30T18:49:34.806Z,25.67
2022-08-30T18:52:06.563Z,25.88
2022-08-30T18:54:39.081Z,25.80
2022-08-30T18:57:09.896Z,25.78
2022-08-30T18:59:39.105Z,25.84
2022-08-30T19:02:14.897Z,25.75
2022-08-30T19:04:45.183Z,25.78
2022-08-30T19:07:16.241Z,25.61
2022-08-30T19:09:45.250Z,25.60
2022-08-30T19:12:14.215Z,25.86
2022-08-30T19:14:43.122Z,25.92
2022-08-30T19:17:11.113Z,25.97
2022-08-30T19:19:48.906Z,26.03
2022-08-30T19:22:22.514Z,26.10
2022-08-30T19:24:52.529Z,26.10
2022-08-30T19:27:21.417Z,26.02
2022-08-30T19:30:08.392Z,26.11
2022-08-30T19:32:37.234Z,26.08
2022-08-30T19:35:06.285Z,26.03
2022-08-30T19:37:35.235Z,25.87
2022-08-30T19:40:09.788Z,25.98
2022-08-30T19:42:45.776Z,25.89
2022-08-30T19:45:18.123Z,25.84
2022-08-30T19:47:47.022Z,25.70
2022-08-30T19:50:15.956Z,25.77
2022-08-30T19:52:52.654Z,25.72
2022-08-30T19:55:30.122Z,25.82
2022-08-30T19:57:59.163Z,25.85
2022-08-30T20:00:31.400Z,25.96
2022-08-30T20:03:01.395Z,25.99
2022-08-30T20:05:31.865Z,25.99
2022-08-30T20:08:00.293Z,25.82
2022-08-30T20:10:28.209Z,25.71
2022-08-30T20:12:55.765Z,25.75
2022-08-30T20:15:25.004Z,25.87
2022-08-30T20:18:05.117Z,25.82
2022-08-30T20:23:26.663Z,25.83
2022-08-30T20:25:55.563Z,25.91
2022-08-30T20:28:25.366Z,25.92
2022-08-30T20:30:55.746Z,26.00
2022-08-30T20:33:25.737Z,25.82
2022-08-30T20:35:53.594Z,25.80
2022-08-30T20:38:21.743Z,25.79
2022-08-30T20:40:52.043Z,25.79
2022-08-30T20:43:23.041Z,25.81
2022-08-30T20:45:51.918Z,25.80
2022-08-30T20:48:20.574Z,25.77
2022-08-30T20:50:49.619Z,25.71
2022-08-30T20:53:17.763Z,25.64
2022-08-30T20:55:47.494Z,25.64
2022-08-30T20:58:15.384Z,25.57
2022-08-30T21:00:45.805Z,25.55
2022-08-30T21:03:26.155Z,25.55
2022-08-30T21:05:56.951Z,25.54
2022-08-30T21:08:25.467Z,25.38
2022-08-30T21:10:53.945Z,25.27
2022-08-30T21:13:21.824Z,25.20
2022-08-30T21:15:54.926Z,25.45
2022-08-30T21:18:23.243Z,25.49
2022-08-30T21:20:50.801Z,25.54
2022-08-30T21:23:19.029Z,25.62
2022-08-30T21:25:46.616Z,25.60
2022-08-30T21:28:15.171Z,25.70
2022-08-30T21:30:45.816Z,25.66
2022-08-30T21:33:13.930Z,25.58
2022-08-30T21:36:01.435Z,25.64
2022-08-30T21:38:29.614Z,25.74
2022-08-30T21:40:57.165Z,25.73
2022-08-30T21:43:25.068Z,25.77
2022-08-30T21:45:53.668Z,25.58
2022-08-30T21:48:21.415Z,25.30
2022-08-30T21:50:49.542Z,25.29
2022-08-30T21:53:18.316Z,25.41
2022-08-30T21:55:48.013Z,25.47
2022-08-30T21:58:16.555Z,25.35
2022-08-30T22:00:44.151Z,25.32
2022-08-30T22:03:11.833Z,25.35
2022-08-30T22:05:40.968Z,25.08
2022-08-30T22:08:08.601Z,24.88
2022-08-30T22:10:36.127Z,24.92
2022-08-30T22:13:04.024Z,25.01
2022-08-30T22:15:32.377Z,25.11
2022-08-30T22:18:00.778Z,25.20
2022-08-30T22:20:30.494Z,25.21
2022-08-30T22:22:58.736Z,25.30
2022-08-30T22:25:26.686Z,25.24
2022-08-30T22:27:54.822Z,25.27
2022-08-30T22:30:22.882Z,25.21
2022-08-30T22:32:50.420Z,25.15
2022-08-30T22:35:20.769Z,25.13
2022-08-30T22:37:53.277Z,25.22
2022-08-30T22:40:21.534Z,25.25
2022-08-30T22:42:49.618Z,25.36
2022-08-30T22:45:17.171Z,25.31
2022-08-30T22:47:44.923Z,25.32
2022-08-30T22:50:13.340Z,25.13
2022-08-30T22:52:41.924Z,24.98
2022-08-30T22:55:10.627Z,25.03
2022-08-30T22:57:40.132Z,25.14
2022-08-30T23:00:15.028Z,25.25
2022-08-30T23:02:51.736Z,25.45
2022-08-30T23:05:22.022Z,25.38
2022-08-30T23:07:50.823Z,25.48
2022-08-30T23:10:18.761Z,25.36
2022-08-30T23:12:46.769Z,25.31
2022-08-30T23:15:16.145Z,25.34
2022-08-30T23:17:43.965Z,25.39
2022-08-30T23:20:12.684Z,25.40
2022-08-30T23:22:40.744Z,25.24
2022-08-30T23:25:27.814Z,25.23
2022-08-30T23:28:20.960Z,25.24
2022-08-30T23:31:07.266Z,25.11
2022-08-30T23:33:53.952Z,25.02
2022-08-30T23:36:39.994Z,24.98
2022-08-30T23:39:26.605Z,24.77
2022-08-30T23:42:12.725Z,24.64
2022-08-30T23:44:59.724Z,24.64
2022-08-30T23:47:46.197Z,24.75
2022-08-30T23:50:32.586Z,24.74
2022-08-30T23:53:19.462Z,24.60
2022-08-30T23:56:06.457Z,24.63
2022-08-30T23:58:54.268Z,24.63
